createdAt,value
2019-05-25T00:00:51.833Z,99.90
2019-05-25T00:03:20.356Z,99.90
2019-05-25T00:05:49.772Z,99.90
2019-05-25T00:08:18.069Z,99.90
2019-05-25T00:10:46.538Z,99.90
2019-05-25T00:13:14.884Z,99.90
2019-05-25T00:15:43.203Z,99.90
2019-05-25T00:18:11.679Z,99.90
2019-05-25T00:20:40.969Z,99.90
2019-05-25T00:23:09.261Z,99.90
2019-05-25T00:25:37.713Z,99.90
2019-05-25T00:28:07.116Z,99.90
2019-05-25T00:30:35.427Z,99.90
2019-05-25T00:33:03.821Z,99.90
2019-05-25T00:35:32.296Z,99.90
2019-05-25T00:38:00.588Z,99.90
2019-05-25T00:40:28.919Z,99.90
2019-05-25T00:42:57.217Z,99.90
2019-05-25T00:45:25.562Z,99.90
2019-05-25T00:47:53.984Z,99.90
2019-05-25T00:50:22.271Z,99.90
2019-05-25T00:52:50.606Z,99.90
2019-05-25T00:55:19.033Z,99.90
2019-05-25T00:57:47.454Z,99.90
2019-05-25T01:00:16.151Z,99.90
2019-05-25T01:02:44.579Z,99.90
2019-05-25T01:05:13.262Z,99.90
2019-05-25T01:07:41.562Z,99.90
2019-05-25T01:10:10.189Z,99.90
2019-05-25T01:12:38.511Z,99.90
2019-05-25T01:15:09.244Z,99.90
2019-05-25T01:17:37.629Z,99.90
2019-05-25T01:20:09.118Z,99.90
2019-05-25T01:22:37.433Z,99.90
2019-05-25T01:25:06.359Z,99.90
2019-05-25T01:27:34.669Z,99.90
2019-05-25T01:30:04.269Z,99.90
2019-05-25T01:32:32.731Z,99.90
2019-05-25T01:35:01.093Z,99.90
2019-05-25T01:37:30.486Z,99.90
2019-05-25T01:39:58.817Z,99.90
2019-05-25T01:42:27.234Z,99.90
2019-05-25T01:44:55.677Z,99.90
2019-05-25T01:47:24.206Z,99.90
2019-05-25T01:49:52.533Z,99.90
2019-05-25T01:52:20.997Z,99.90
2019-05-25T01:54:59.415Z,99.90
2019-05-25T01:57:19.496Z,99.90
2019-05-25T01:59:47.927Z,99.90
2019-05-25T02:02:16.270Z,99.90
2019-05-25T02:04:44.554Z,99.90
2019-05-25T02:07:12.936Z,99.90
2019-05-25T02:09:41.321Z,99.90
2019-05-25T02:12:09.631Z,99.90
2019-05-25T02:14:38.041Z,99.90
2019-05-25T02:17:06.346Z,99.90
2019-05-25T02:19:34.661Z,99.90
2019-05-25T02:22:03.124Z,99.90
2019-05-25T02:24:31.528Z,99.90
2019-05-25T02:26:59.914Z,99.90
2019-05-25T02:29:29.248Z,99.90
2019-05-25T02:31:57.523Z,99.90
2019-05-25T02:34:25.976Z,99.90
2019-05-25T02:36:54.364Z,99.90
2019-05-25T02:39:22.639Z,99.90
2019-05-25T02:41:51.035Z,99.90
2019-05-25T02:44:19.524Z,99.90
2019-05-25T02:46:47.807Z,99.90
2019-05-25T02:49:16.091Z,99.90
2019-05-25T02:51:44.439Z,99.90
2019-05-25T02:54:12.733Z,99.90
2019-05-25T02:56:41.051Z,99.90
2019-05-25T02:59:09.398Z,99.90
2019-05-25T03:01:37.670Z,99.90
2019-05-25T03:04:05.961Z,99.90
2019-05-25T03:06:34.866Z,99.90
2019-05-25T03:09:05.635Z,99.90
2019-05-25T03:11:34.359Z,99.90
2019-05-25T03:14:03.325Z,99.90
2019-05-25T03:16:31.717Z,99.90
2019-05-25T03:19:00.027Z,99.90
2019-05-25T03:21:28.431Z,99.90
2019-05-25T03:23:56.754Z,99.90
2019-05-25T03:26:25.146Z,99.90
2019-05-25T03:28:53.560Z,99.90
2019-05-25T03:31:21.853Z,99.90
2019-05-25T03:33:51.282Z,99.90
2019-05-25T03:36:19.643Z,99.90
2019-05-25T03:38:48.112Z,99.90
2019-05-25T03:41:16.532Z,99.90
2019-05-25T03:43:44.907Z,99.90
2019-05-25T03:46:13.196Z,99.90
2019-05-25T03:48:41.517Z,99.90
2019-05-25T03:51:09.844Z,99.90
2019-05-25T03:53:38.267Z,99.90
2019-05-25T03:56:06.721Z,99.90
2019-05-25T03:58:35.119Z,99.90
2019-05-25T04:01:03.532Z,99.90
2019-05-25T04:03:31.834Z,99.90
2019-05-25T04:06:00.262Z,99.90
2019-05-25T04:08:28.639Z,99.90
2019-05-25T04:10:57.082Z,99.90
2019-05-25T04:13:25.431Z,99.90
2019-05-25T04:15:53.731Z,99.90
2019-05-25T04:18:22.203Z,99.90
2019-05-25T04:20:53.062Z,99.90
2019-05-25T04:23:21.289Z,99.90
2019-05-25T04:25:49.716Z,99.90
2019-05-25T04:28:18.051Z,99.90
2019-05-25T04:30:46.346Z,99.90
2019-05-25T04:33:14.726Z,99.90
2019-05-25T04:35:43.129Z,99.90
2019-05-25T04:38:11.515Z,99.90
2019-05-25T04:40:39.947Z,99.90
2019-05-25T04:43:08.377Z,99.90
2019-05-25T04:45:36.698Z,99.90
2019-05-25T04:48:05.173Z,99.90
2019-05-25T04:50:33.473Z,99.90
2019-05-25T04:53:01.819Z,99.90
2019-05-25T04:55:30.348Z,99.90
2019-05-25T04:57:58.636Z,99.90
2019-05-25T05:00:26.972Z,99.90
2019-05-25T05:02:55.410Z,99.90
2019-05-25T05:05:23.704Z,99.90
2019-05-25T05:07:52.243Z,99.90
2019-05-25T05:10:20.663Z,99.90
2019-05-25T05:12:49.501Z,99.90
2019-05-25T05:15:19.866Z,99.90
2019-05-25T05:17:48.223Z,99.90
2019-05-25T05:20:16.834Z,99.90
2019-05-25T05:22:45.251Z,99.90
2019-05-25T05:25:13.674Z,99.90
2019-05-25T05:27:41.982Z,99.90
2019-05-25T05:30:10.716Z,99.90
2019-05-25T05:32:39.049Z,99.90
2019-05-25T05:35:09.487Z,99.90
2019-05-25T05:37:40.006Z,99.90
2019-05-25T05:40:08.821Z,99.90
2019-05-25T05:42:40.197Z,99.90
2019-05-25T05:45:10.159Z,99.90
2019-05-25T05:47:42.839Z,99.90
2019-05-25T05:50:11.834Z,99.90
2019-05-25T05:52:40.737Z,99.90
2019-05-25T05:55:12.318Z,99.90
2019-05-25T05:57:40.604Z,99.90
2019-05-25T06:00:10.400Z,99.90
2019-05-25T06:02:38.976Z,99.90
2019-05-25T06:05:07.279Z,99.90
2019-05-25T06:07:35.735Z,99.90
2019-05-25T06:10:06.966Z,99.90
2019-05-25T06:12:35.368Z,99.90
2019-05-25T06:15:04.562Z,99.30
2019-05-25T06:17:33.096Z,99.50
2019-05-25T06:20:01.571Z,99.40
2019-05-25T06:22:29.976Z,99.20
2019-05-25T06:24:58.354Z,98.90
2019-05-25T06:27:28.107Z,97.10
2019-05-25T06:29:56.466Z,96.90
2019-05-25T06:32:25.897Z,95.20
2019-05-25T06:34:54.211Z,95.00
2019-05-25T06:37:22.518Z,95.30
2019-05-25T06:39:50.968Z,93.80
2019-05-25T06:42:19.279Z,95.50
2019-05-25T06:44:47.683Z,96.60
2019-05-25T06:47:16.217Z,96.00
2019-05-25T06:49:44.995Z,95.80
2019-05-25T06:52:13.469Z,97.10
2019-05-25T06:54:41.877Z,95.30
2019-05-25T06:57:10.341Z,92.90
2019-05-25T06:59:38.778Z,91.50
2019-05-25T07:02:07.148Z,90.30
2019-05-25T07:04:35.530Z,89.50
2019-05-25T07:07:03.954Z,92.50
2019-05-25T07:09:32.471Z,91.50
2019-05-25T07:12:01.509Z,90.60
2019-05-25T07:14:29.900Z,91.10
2019-05-25T07:16:58.331Z,84.60
2019-05-25T07:19:27.618Z,87.50
2019-05-25T07:21:56.087Z,83.70
2019-05-25T07:24:25.058Z,82.20
2019-05-25T07:26:53.586Z,79.50
2019-05-25T07:29:21.903Z,79.10
2019-05-25T07:31:50.386Z,78.10
2019-05-25T07:34:18.848Z,74.00
2019-05-25T07:36:47.221Z,75.70
2019-05-25T07:39:15.661Z,76.40
2019-05-25T07:41:44.078Z,76.00
2019-05-25T07:44:12.383Z,75.90
2019-05-25T07:46:41.798Z,74.60
2019-05-25T07:49:10.223Z,72.80
2019-05-25T07:51:38.562Z,69.80
2019-05-25T07:54:07.536Z,71.40
2019-05-25T07:56:35.969Z,70.90
2019-05-25T07:59:04.701Z,68.60
2019-05-25T08:01:33.192Z,71.20
2019-05-25T08:04:01.619Z,70.20
2019-05-25T08:06:30.048Z,67.80
2019-05-25T08:08:58.501Z,67.40
2019-05-25T08:11:26.832Z,67.80
2019-05-25T08:13:55.146Z,66.60
2019-05-25T08:16:23.474Z,65.70
2019-05-25T08:18:51.794Z,68.50
2019-05-25T08:21:20.239Z,72.20
2019-05-25T08:23:48.775Z,71.90
2019-05-25T08:26:17.279Z,68.60
2019-05-25T08:28:45.704Z,72.60
2019-05-25T08:31:32.093Z,73.40
2019-05-25T08:34:00.621Z,71.10
2019-05-25T08:36:29.828Z,70.10
2019-05-25T08:38:58.519Z,67.40
2019-05-25T08:41:26.960Z,68.50
2019-05-25T08:43:55.273Z,69.10
2019-05-25T08:46:23.488Z,65.60
2019-05-25T08:49:04.635Z,64.80
2019-05-25T08:51:33.006Z,65.70
2019-05-25T08:54:01.339Z,53.30
2019-05-25T08:56:30.889Z,57.80
2019-05-25T08:58:59.296Z,53.20
2019-05-25T09:01:27.666Z,53.00
2019-05-25T09:03:56.066Z,55.00
2019-05-25T09:06:24.489Z,58.80
2019-05-25T09:08:52.826Z,56.00
2019-05-25T09:11:21.238Z,56.50
2019-05-25T09:13:49.721Z,53.20
2019-05-25T09:16:18.297Z,50.50
2019-05-25T09:18:46.631Z,48.10
2019-05-25T09:21:15.096Z,49.30
2019-05-25T09:23:44.469Z,48.30
2019-05-25T09:26:13.612Z,48.80
2019-05-25T09:28:42.171Z,44.80
2019-05-25T09:31:10.544Z,43.10
2019-05-25T09:33:38.969Z,43.70
2019-05-25T09:36:07.326Z,44.60
2019-05-25T09:38:35.809Z,45.10
2019-05-25T09:41:04.122Z,44.70
2019-05-25T09:43:33.996Z,43.30
2019-05-25T09:46:03.317Z,40.90
2019-05-25T09:48:31.913Z,37.40
2019-05-25T09:51:15.180Z,37.40
2019-05-25T09:53:40.979Z,38.70
2019-05-25T09:56:09.379Z,37.60
2019-05-25T09:58:37.709Z,39.80
2019-05-25T10:01:06.314Z,39.20
2019-05-25T10:03:34.602Z,34.80
2019-05-25T10:06:10.677Z,38.60
2019-05-25T10:08:33.430Z,36.10
2019-05-25T10:11:01.999Z,37.00
2019-05-25T10:13:30.298Z,36.10
2019-05-25T10:15:58.746Z,35.20
2019-05-25T10:18:27.894Z,36.40
2019-05-25T10:20:56.221Z,37.10
2019-05-25T10:23:24.915Z,34.10
2019-05-25T10:25:53.374Z,33.30
2019-05-25T10:28:21.844Z,33.60
2019-05-25T10:30:50.317Z,34.60
2019-05-25T10:33:21.777Z,34.90
2019-05-25T10:35:49.339Z,37.90
2019-05-25T10:38:17.784Z,36.10
2019-05-25T10:40:46.224Z,31.70
2019-05-25T10:43:14.576Z,32.40
2019-05-25T10:45:43.027Z,35.30
2019-05-25T10:48:15.585Z,31.30
2019-05-25T10:50:45.584Z,33.30
2019-05-25T10:53:26.528Z,33.00
2019-05-25T10:55:55.072Z,29.40
2019-05-25T10:58:23.621Z,31.20
2019-05-25T11:00:53.163Z,27.70
2019-05-25T11:03:21.611Z,28.00
2019-05-25T11:05:50.076Z,24.90
2019-05-25T11:08:18.629Z,23.70
2019-05-25T11:10:46.969Z,25.10
2019-05-25T11:13:16.859Z,26.00
2019-05-25T11:15:45.325Z,27.00
2019-05-25T11:18:13.811Z,26.10
2019-05-25T11:20:42.243Z,26.30
2019-05-25T11:23:10.828Z,27.40
2019-05-25T11:25:39.149Z,26.10
2019-05-25T11:28:08.394Z,26.30
2019-05-25T11:30:38.096Z,25.90
2019-05-25T11:33:06.533Z,27.70
2019-05-25T11:35:35.044Z,26.80
2019-05-25T11:38:03.499Z,25.40
2019-05-25T11:40:34.763Z,25.80
2019-05-25T11:43:03.328Z,27.30
2019-05-25T11:45:31.999Z,21.40
2019-05-25T11:48:01.831Z,24.60
2019-05-25T11:50:30.311Z,26.10
2019-05-25T11:52:58.809Z,27.30
2019-05-25T11:55:37.136Z,28.90
2019-05-25T11:58:05.990Z,31.40
2019-05-25T12:00:34.448Z,29.50
2019-05-25T12:03:03.301Z,30.70
2019-05-25T12:05:31.722Z,33.20
2019-05-25T12:08:00.202Z,33.00
2019-05-25T12:10:28.754Z,31.30
2019-05-25T12:12:57.180Z,32.80
2019-05-25T12:15:25.643Z,32.20
2019-05-25T12:17:54.397Z,31.30
2019-05-25T12:20:23.084Z,31.40
2019-05-25T12:22:52.551Z,29.70
2019-05-25T12:25:22.179Z,29.70
2019-05-25T12:27:50.708Z,30.50
2019-05-25T12:30:19.737Z,29.30
2019-05-25T12:32:48.462Z,29.50
2019-05-25T12:35:18.056Z,30.40
2019-05-25T12:37:46.640Z,29.50
2019-05-25T12:40:15.679Z,30.40
2019-05-25T12:42:45.970Z,28.80
2019-05-25T12:45:15.000Z,29.20
2019-05-25T12:47:43.605Z,28.90
2019-05-25T12:50:13.664Z,29.50
2019-05-25T12:52:44.137Z,29.60
2019-05-25T12:55:12.767Z,26.30
2019-05-25T12:57:51.573Z,27.20
2019-05-25T13:00:20.642Z,26.90
2019-05-25T13:02:48.970Z,29.10
2019-05-25T13:05:32.677Z,28.70
2019-05-25T13:07:47.704Z,30.30
2019-05-25T13:10:16.241Z,29.10
2019-05-25T13:12:44.749Z,29.20
2019-05-25T13:15:13.416Z,29.50
2019-05-25T13:17:41.819Z,29.10
2019-05-25T13:20:11.983Z,29.00
2019-05-25T13:22:40.476Z,28.20
2019-05-25T13:25:09.096Z,29.00
2019-05-25T13:27:37.852Z,28.40
2019-05-25T13:30:12.845Z,27.90
2019-05-25T13:32:41.202Z,27.00
2019-05-25T13:35:10.375Z,26.30
2019-05-25T13:37:38.751Z,25.40
2019-05-25T13:40:09.807Z,26.30
2019-05-25T13:42:38.197Z,27.10
2019-05-25T13:45:08.035Z,24.80
2019-05-25T13:47:36.365Z,24.90
2019-05-25T13:50:07.155Z,25.80
2019-05-25T13:52:37.336Z,28.20
2019-05-25T13:55:06.840Z,28.10
2019-05-25T13:57:35.129Z,25.90
2019-05-25T14:00:16.507Z,26.40
2019-05-25T14:02:44.952Z,28.90
2019-05-25T14:05:13.648Z,31.50
2019-05-25T14:07:42.256Z,31.40
2019-05-25T14:10:10.705Z,32.90
2019-05-25T14:12:39.111Z,33.90
2019-05-25T14:15:09.386Z,34.10
2019-05-25T14:17:37.853Z,33.90
2019-05-25T14:20:06.669Z,34.50
2019-05-25T14:22:36.173Z,33.90
2019-05-25T14:25:04.879Z,32.30
2019-05-25T14:27:33.217Z,32.60
2019-05-25T14:30:01.683Z,34.40
2019-05-25T14:32:30.036Z,34.50
2019-05-25T14:34:58.486Z,34.50
2019-05-25T14:37:27.011Z,34.50
2019-05-25T14:39:56.242Z,33.90
2019-05-25T14:42:24.608Z,32.50
2019-05-25T14:44:53.125Z,32.20
2019-05-25T14:47:21.926Z,31.90
2019-05-25T14:49:50.216Z,30.20
2019-05-25T14:52:18.579Z,29.40
2019-05-25T14:54:46.874Z,28.70
2019-05-25T14:57:15.313Z,29.40
2019-05-25T14:59:43.821Z,30.40
2019-05-25T15:02:22.634Z,29.80
2019-05-25T15:04:51.037Z,31.70
2019-05-25T15:07:19.396Z,32.70
2019-05-25T15:09:47.772Z,31.50
2019-05-25T15:12:16.097Z,30.40
2019-05-25T15:14:44.587Z,33.00
2019-05-25T15:17:12.909Z,34.30
2019-05-25T15:19:41.466Z,35.90
2019-05-25T15:22:10.392Z,35.60
2019-05-25T15:24:40.143Z,35.30
2019-05-25T15:27:08.729Z,37.40
2019-05-25T15:29:55.091Z,37.70
2019-05-25T15:32:24.545Z,39.50
2019-05-25T15:34:52.929Z,39.40
2019-05-25T15:37:21.234Z,39.00
2019-05-25T15:39:49.807Z,39.50
2019-05-25T15:42:19.515Z,40.70
2019-05-25T15:47:35.366Z,40.40
2019-05-25T15:50:05.353Z,41.30
2019-05-25T15:52:33.915Z,38.70
2019-05-25T15:55:03.453Z,39.50
2019-05-25T15:57:31.951Z,41.00
2019-05-25T16:00:00.298Z,39.70
2019-05-25T16:02:39.192Z,39.10
2019-05-25T16:05:07.742Z,38.70
2019-05-25T16:07:41.182Z,38.90
2019-05-25T16:10:10.687Z,40.50
2019-05-25T16:12:39.036Z,39.40
2019-05-25T16:15:07.976Z,39.60
2019-05-25T16:17:36.493Z,41.40
2019-05-25T16:20:05.388Z,40.80
2019-05-25T16:22:34.464Z,41.30
2019-05-25T16:25:03.132Z,42.70
2019-05-25T16:27:31.589Z,43.50
2019-05-25T16:30:00.173Z,44.60
2019-05-25T16:32:28.507Z,45.30
2019-05-25T16:34:58.736Z,46.00
2019-05-25T16:37:27.540Z,46.00
2019-05-25T16:39:56.206Z,46.60
2019-05-25T16:42:24.583Z,47.90
2019-05-25T16:44:53.218Z,48.40
2019-05-25T16:47:21.552Z,48.50
2019-05-25T16:49:50.259Z,49.50
2019-05-25T16:52:37.022Z,50.00
2019-05-25T16:57:52.824Z,50.40
2019-05-25T17:00:28.024Z,50.50
2019-05-25T17:03:06.439Z,50.30
2019-05-25T17:05:34.851Z,51.60
2019-05-25T17:08:03.280Z,50.90
2019-05-25T17:10:32.148Z,52.40
2019-05-25T17:13:00.574Z,53.80
2019-05-25T17:15:28.968Z,54.00
2019-05-25T17:17:58.028Z,55.00
2019-05-25T17:20:26.448Z,55.30
2019-05-25T17:22:56.341Z,57.20
2019-05-25T17:25:28.399Z,56.30
2019-05-25T17:27:57.265Z,56.30
2019-05-25T17:30:44.346Z,56.90
2019-05-25T17:33:14.686Z,57.30
2019-05-25T17:35:44.123Z,58.10
2019-05-25T17:38:12.998Z,59.90
2019-05-25T17:40:41.917Z,60.30
2019-05-25T17:43:10.358Z,61.80
2019-05-25T17:45:38.728Z,62.00
2019-05-25T17:48:07.279Z,62.20
2019-05-25T17:50:36.306Z,63.80
2019-05-25T17:53:04.908Z,64.40
2019-05-25T17:55:51.266Z,64.10
2019-05-25T17:58:20.761Z,64.80
2019-05-25T18:00:49.963Z,65.80
2019-05-25T18:03:33.657Z,66.90
2019-05-25T18:06:02.121Z,68.00
2019-05-25T18:08:30.486Z,68.20
2019-05-25T18:10:58.991Z,69.00
2019-05-25T18:13:29.063Z,69.90
2019-05-25T18:15:57.769Z,70.10
2019-05-25T18:18:26.635Z,70.80
2019-05-25T18:20:55.093Z,71.20
2019-05-25T18:23:25.505Z,72.00
2019-05-25T18:25:53.924Z,72.10
2019-05-25T18:28:22.269Z,72.60
2019-05-25T18:30:50.761Z,73.00
2019-05-25T18:33:19.170Z,72.90
2019-05-25T18:35:48.569Z,73.70
2019-05-25T18:38:17.046Z,74.60
2019-05-25T18:40:46.735Z,74.50
2019-05-25T18:43:15.588Z,75.70
2019-05-25T18:45:44.041Z,76.50
2019-05-25T18:48:14.419Z,77.80
2019-05-25T18:50:42.952Z,78.40
2019-05-25T18:53:11.620Z,79.40
2019-05-25T18:55:42.971Z,79.90
2019-05-25T18:58:11.847Z,79.70
2019-05-25T19:00:40.976Z,80.20
2019-05-25T19:03:09.568Z,80.50
2019-05-25T19:05:50.917Z,80.90
2019-05-25T19:08:19.467Z,80.50
2019-05-25T19:10:47.919Z,79.50
2019-05-25T19:13:16.347Z,79.00
2019-05-25T19:15:44.886Z,79.10
2019-05-25T19:18:13.329Z,79.30
2019-05-25T19:20:43.447Z,79.10
2019-05-25T19:23:11.925Z,79.00
2019-05-25T19:25:40.379Z,79.10
2019-05-25T19:28:08.902Z,79.70
2019-05-25T19:30:38.454Z,80.10
2019-05-25T19:33:06.925Z,79.90
2019-05-25T19:35:35.489Z,80.60
2019-05-25T19:38:04.097Z,81.00
2019-05-25T19:40:32.524Z,81.70
2019-05-25T19:43:00.999Z,81.50
2019-05-25T19:45:29.525Z,82.10
2019-05-25T19:47:59.863Z,82.70
2019-05-25T19:50:28.279Z,84.40
2019-05-25T19:52:57.061Z,84.60
2019-05-25T19:55:25.823Z,85.00
2019-05-25T19:57:54.307Z,85.30
2019-05-25T20:00:23.988Z,85.50
2019-05-25T20:02:52.424Z,87.30
2019-05-25T20:05:23.154Z,86.90
2019-05-25T20:07:52.481Z,86.30
2019-05-25T20:10:21.211Z,86.10
2019-05-25T20:12:49.681Z,87.60
2019-05-25T20:15:18.574Z,88.50
2019-05-25T20:17:47.407Z,89.50
2019-05-25T20:20:16.054Z,88.30
2019-05-25T20:22:45.720Z,86.40
2019-05-25T20:25:14.129Z,84.20
2019-05-25T20:27:42.589Z,83.80
2019-05-25T20:30:12.347Z,83.00
2019-05-25T20:32:40.762Z,83.80
2019-05-25T20:35:09.366Z,84.80
2019-05-25T20:37:38.762Z,83.00
2019-05-25T20:40:08.568Z,82.00
2019-05-25T20:42:38.512Z,82.50
2019-05-25T20:45:07.245Z,81.10
2019-05-25T20:47:37.349Z,81.00
2019-05-25T20:50:06.854Z,80.20
2019-05-25T20:52:35.161Z,78.40
2019-05-25T20:55:04.244Z,78.30
2019-05-25T20:57:33.018Z,77.20
2019-05-25T21:00:01.571Z,78.50
2019-05-25T21:02:30.771Z,81.30
2019-05-25T21:04:59.427Z,85.20
2019-05-25T21:07:28.190Z,87.20
2019-05-25T21:09:56.736Z,88.50
2019-05-25T21:12:25.291Z,88.10
2019-05-25T21:14:53.625Z,83.90
2019-05-25T21:17:22.199Z,79.70
2019-05-25T21:19:50.815Z,77.30
2019-05-25T21:22:19.225Z,76.60
2019-05-25T21:24:47.659Z,76.80
2019-05-25T21:27:16.529Z,76.20
2019-05-25T21:29:44.969Z,75.30
2019-05-25T21:32:14.155Z,77.40
2019-05-25T21:34:42.568Z,79.10
2019-05-25T21:37:11.926Z,82.00
2019-05-25T21:39:40.336Z,82.20
2019-05-25T21:42:09.066Z,79.40
2019-05-25T21:44:37.445Z,80.10
2019-05-25T21:47:05.952Z,84.50
2019-05-25T21:49:34.329Z,87.60
2019-05-25T21:52:02.925Z,88.20
2019-05-25T21:54:31.257Z,89.10
2019-05-25T21:56:59.921Z,91.60
2019-05-25T21:59:28.234Z,90.60
2019-05-25T22:01:58.931Z,95.90
2019-05-25T22:04:27.489Z,97.70
2019-05-25T22:06:56.082Z,99.20
2019-05-25T22:09:36.899Z,99.90
2019-05-25T22:12:05.242Z,99.90
2019-05-25T22:14:33.850Z,99.90
2019-05-25T22:17:02.274Z,99.90
2019-05-25T22:19:30.659Z,99.90
2019-05-25T22:22:00.264Z,99.90
2019-05-25T22:24:28.729Z,99.90
2019-05-25T22:26:57.180Z,99.90
2019-05-25T22:29:25.666Z,99.90
2019-05-25T22:31:54.174Z,99.90
2019-05-25T22:34:22.569Z,99.90
2019-05-25T22:36:51.026Z,99.90
2019-05-25T22:39:19.529Z,99.90
2019-05-25T22:41:47.966Z,99.90
2019-05-25T22:44:16.331Z,99.90
2019-05-25T22:46:44.946Z,99.90
2019-05-25T22:49:13.255Z,99.90
2019-05-25T22:51:41.534Z,99.90
2019-05-25T22:54:10.001Z,99.90
2019-05-25T22:56:38.451Z,99.90
2019-05-25T22:59:06.846Z,99.90
2019-05-25T23:01:35.384Z,99.90
2019-05-25T23:04:03.784Z,99.90
2019-05-25T23:06:32.212Z,99.90
2019-05-25T23:09:00.774Z,99.90
2019-05-25T23:11:41.736Z,99.90
2019-05-25T23:14:10.350Z,99.90
2019-05-25T23:16:39.898Z,99.90
2019-05-25T23:19:08.251Z,99.90
2019-05-25T23:21:36.799Z,99.90
2019-05-25T23:24:05.191Z,99.90
2019-05-25T23:26:33.555Z,99.90
2019-05-25T23:29:01.999Z,99.90
2019-05-25T23:31:30.296Z,99.90
2019-05-25T23:33:58.654Z,99.90
2019-05-25T23:36:27.102Z,99.90
2019-05-25T23:38:55.518Z,99.90
2019-05-25T23:41:23.952Z,99.90
2019-05-25T23:43:54.537Z,99.90
2019-05-25T23:46:22.939Z,99.90
2019-05-25T23:48:51.244Z,99.90
2019-05-25T23:51:19.574Z,99.90
2019-05-25T23:53:47.896Z,99.90
2019-05-25T23:56:16.204Z,99.90
2019-05-25T23:58:44.551Z,99.90
